map of EBFS home
Great Circle Mapper logo
EBFS - Airport
Location
City:  Florennes, Namur, Belgium
ICAO:EBFS

Details
Type:Airport (Aerodrome, Airfield)
Use:Military
Latitude:5014'36"N (50.243333)
Longitude:438'45"E (4.645833)
Elevation:935 ft (285 m)
Variation:0.99E (WMM2015 magnetic declination)
0.14 annual change
Runways:2
Longest:11105 × 148 ft (3385 × 45 m), paved

Time
Time Zone:UTC+1 (DST+2)
Local Time:

Weather
METAR:EBFS 301555Z 33010KT 0300 -DZ FG SCT001 BKN002 BKN004 13/13 Q1005 RED YLO TEMPO RED
TAF:EBFS 301541Z 3019/3107 35010KT 2000 RA RADZ SCT002 BKN004
TEMPO 3019/3107 0500 DZ FG SCT001 BKN002

Related Locations
Nearby:
Farthest:CHT: 11983 mi / 19284 km
Waitangi [Tuuta], Chatham Islands, NZ

Find:

   beyond  
but within

Other Information
Maps:
NOTAMs:
Links:
Sources:

  
flag of Belgium
flag of Namur
  

Sectional Chart

Flight Planning
at skyvector.com

Satellite Image

Google Maps Satellite view

 

Copyright © 2004-2016 Karl L. Swartz. All rights reserved.
The Great Circle Mapper name and logo are trademarks of the Great Circle Mapper.
All other trademarks mentioned herein belong to their respective owners.
Please see credits for attibutions and further copyright information.

  Follow gcmap on Facebook Follow gcmap on Twitter Follow gcmap on Google+ GCmap on LinkedIn

hCard Microformat

Geo Microformat